Decoded Metar for KC62 ( in ) (IATA:) | Meteo·Mobile Aviation Weather
aviador You're here:

KC62 Decoded Metar

in
Report Time2019-02-16 07:55:00
UTC Time2019-02-16 07:43:54
Flight Rules mvfr MVFR
Wind280° at 03 kt
W.Rank280° ranks 9
Current wind is below 280° avg. (7.6)
Visibility9999 m
Phenomena:N/A
Clouds:Overcast 024 Hf
Expected CloudBase > 1,200 ft AGL from Temp-Dew spread
Ceiling2,400 ft
Temp-7°C
Dew Point-10°C (79% RH)
AAT-11.1°C
QNH1017 hPa
Raw Report
KC62 160755Z AUTO 28003KT 10SM OVC024 M07/M10 A3002 RMK AO2
T10691097=

Extra information for KC62:More info

Social comments